Latest Coastal Weather Observations for Hamilton Island

IDQ60701

Issued at 10:31 am EST Friday 28 April 2017 (issued every 10 minutes, with the page automatically refreshed every 10 minutes)

About coastal observations | Map of coastal stations | Coastal observations for QLD | Marine services | Other Formats
Station Details ID: 033106 Name: HAMILTON ISLAND AIRPORT Lat: -20.37 Lon: 148.95 Height: 58.66 m
Data from the previous 72 hours. | See also: Recent months at Hamilton Island
Date/Time
EST
Temp
°C
Wind Pressure Rain since
9am
mm
Weather Cloud Vis
km
Sea
Height
m
Swell
Dir  Spd
kts
Gust
kts
hPa Trend Height
m
Period
s
Dir
28/10:30am 19.6 SSE 19 25 1018.3 - 0.0 - - 10 - - - -
28/10:00am 19.2 SSE 22 26 1018.7 - 0.0 - - 10 - - - -
28/09:30am 18.8 SSE 22 28 1018.6 - 0.0 - - 10 - - - -
28/09:00am 18.9 SSE 20 27 1018.3 - 0.0 - - 10 - - - -
28/08:30am 18.8 SSE 23 28 1018.3 - 0.0 - - 10 - - - -
28/08:00am 18.9 SSE 26 31 1017.9 - 0.0 - - 10 - - - -
28/07:30am 18.9 SSE 23 29 1017.4 - 0.0 - - 10 - - - -
28/07:00am 18.8 SSE 22 26 1017.1 - 0.0 - - 10 - - - -
28/06:30am 18.6 SSE 29 34 1016.7 - 0.0 - - 10 - - - -
28/06:00am 18.9 SSE 25 31 1016.1 - 0.0 - - 10 - - - -
28/05:30am 19.3 SSE 30 36 1015.9 - 0.0 - - 10 - - - -
28/05:00am 19.5 SSE 33 39 1015.6 - 0.0 - - 10 - - - -
28/04:30am 19.8 SSE 32 37 1015.5 - 0.0 - - 10 - - - -
28/04:00am 20.4 SSE 30 37 1015.6 - 0.0 - - 10 - - - -
28/03:30am 20.5 SSE 27 34 1015.2 - 0.0 - - 10 - - - -
28/03:00am 21.2 SSE 26 32 1014.6 - 0.0 - - 10 - - - -
28/02:30am 22.0 SSE 25 29 1014.5 - 0.0 - - 10 - - - -
28/02:00am 22.4 SSE 22 25 1014.7 - 0.0 - - 10 - - - -
28/01:30am 22.7 SSE 22 26 1014.7 - 0.0 - - 10 - - - -
28/01:00am 22.9 SSE 21 25 1014.7 - 0.0 - - 10 - - - -
28/12:30am 22.9 SSE 20 25 1014.8 - 0.0 - - 10 - - - -
28/12:00am 23.2 SSE 21 23 1014.8 - 0.0 - - 10 - - - -
 
Date/Time
EST
Temp
°C
Wind Pressure Rain since
9am
mm
Weather Cloud Vis
km
Sea
Height
m
Swell
Dir  Spd
kts
Gust
kts
hPa Trend Height
m
Period
s
Dir
27/11:30pm 23.4 SSE 20 24 1014.9 - 0.0 - - 10 - - - -
27/11:00pm 23.4 SSE 22 26 1014.9 - 0.0 - - 10 - - - -
27/10:30pm 23.4 SE 20 24 1015.0 - 0.0 - - 10 - - - -
27/10:00pm 23.5 SE 18 21 1015.1 - 0.0 - - 10 - - - -
27/09:30pm 23.7 SE 18 21 1015.0 - 0.0 - - 10 - - - -
27/09:00pm 23.8 SE 20 22 1014.9 - 0.0 - Mostly clear 10 - - - -
27/08:30pm 23.8 SE 19 22 1014.7 - 0.0 - Partly cloudy 10 - - - -
27/08:00pm 23.9 SSE 18 21 1014.5 - 0.0 - Partly cloudy 10 - - - -
27/07:30pm 23.7 SE 15 18 1013.9 - 0.0 - Partly cloudy 10 - - - -
27/07:00pm 23.8 SE 13 17 1013.4 - 0.0 - Partly cloudy 10 - - - -
27/06:30pm 23.6 SE 11 13 1013.1 - 0.0 - - 10 - - - -
27/06:00pm 23.6 SE 12 14 1012.3 - 0.0 - Mostly clear 10 - - - -
27/05:30pm 23.8 SE 11 13 1012.1 - 0.0 - - 10 - - - -
27/05:00pm 24.2 SSE 12 14 1012.0 - 0.0 - - 10 - - - -
27/04:30pm 24.5 SE 10 12 1011.4 - 0.0 - - 10 - - - -
27/04:00pm 25.0 ESE 9 11 1011.2 - 0.0 - Partly cloudy 10 - - - -
27/03:30pm 24.8 ESE 10 11 1011.4 - 0.0 - Partly cloudy - - - - -
27/03:00pm 24.9 ESE 9 11 1011.0 - 0.0 - Cloudy 10 - - - -
27/02:30pm 25.0 SE 10 12 1011.5 - 0.0 - Partly cloudy 10 - - - -
27/02:00pm 25.8 SSE 10 12 1011.7 - 0.0 - Partly cloudy 10 - - - -
27/01:30pm 25.7 SSE 10 11 1012.1 - 0.0 - Partly cloudy 10 - - - -
27/01:00pm 26.5 SSE 10 12 1012.4 - 0.0 - Partly cloudy 10 - - - -
27/12:30pm 26.5 SSE 11 13 1012.7 - 0.0 - - 10 - - - -
27/12:00pm 25.6 SSE 11 12 1012.7 - 0.0 - - 10 - - - -
27/11:30am 26.4 SSE 9 10 1013.4 - 0.0 - - 10 - - - -
27/11:00am 26.1 SSE 7 8 1013.9 - 0.0 - - 10 - - - -
27/10:30am 26.2 SE 7 8 1014.0 - 0.0 - - 10 - - - -
27/10:00am 26.1 SE 5 6 1014.0 - 0.0 - - 10 - - - -
27/09:30am 26.3 SE 6 8 1014.1 - 0.0 - - 10 - - - -
27/09:00am 25.8 NNW 4 6 1013.7 - 0.0 - - 10 - - - -
27/08:30am 25.3 NNW 4 5 1013.9 - 0.0 - - 10 - - - -
27/08:00am 24.4 NNW 7 8 1013.5 - 0.0 - - 10 - - - -
27/07:30am 23.7 NNW 6 7 1013.3 - 0.0 - - 10 - - - -
27/07:00am 23.4 NW 7 8 1013.0 - 0.0 - - 10 - - - -
27/06:30am 23.2 NW 7 8 1012.4 - 0.0 - - 10 - - - -
27/06:00am 23.0 WNW 8 11 1012.1 - 0.0 - - 10 - - - -
27/05:30am 22.8 W 8 10 1012.1 - 0.0 - - 10 - - - -
27/05:00am 23.2 W 12 14 1011.9 - 0.0 - - 10 - - - -
27/04:30am 23.5 WNW 13 15 1011.7 - 0.0 - - 10 - - - -
27/04:00am 23.6 NW 13 16 1011.3 - 0.0 - - 10 - - - -
27/03:30am 23.6 NW 14 16 1011.2 - 0.0 - - 10 - - - -
27/03:00am 23.6 NW 12 15 1011.0 - 0.0 - - 10 - - - -
27/02:30am 23.7 WNW 13 16 1011.6 - 0.0 - - 10 - - - -
27/02:00am 23.6 NW 10 13 1012.1 - 0.0 - - 10 - - - -
27/01:30am 23.5 NNW 9 10 1012.3 - 0.0 - - 10 - - - -
27/01:00am 23.5 NNW 11 12 1012.4 - 0.0 - - 10 - - - -
27/12:30am 23.6 NNW 11 12 1012.7 - 0.0 - - 10 - - - -
27/12:00am 23.6 NNW 9 11 1012.7 - 0.0 - - 10 - - - -
 
Date/Time
EST
Temp
°C
Wind Pressure Rain since
9am
mm
Weather Cloud Vis
km
Sea
Height
m
Swell
Dir  Spd
kts
Gust
kts
hPa Trend Height
m
Period
s
Dir
26/11:30pm 23.6 NNW 8 10 1013.2 - 0.0 - - 10 - - - -
26/11:00pm 23.8 NNW 9 12 1013.4 - 0.0 - - 10 - - - -
26/10:30pm 23.7 NNW 10 12 1013.5 - 0.0 - - 10 - - - -
26/10:00pm 23.8 NNW 9 11 1013.6 - 0.0 - - 10 - - - -
26/09:30pm 23.8 NNW 8 10 1013.7 - 0.0 - - 10 - - - -
26/09:00pm 23.8 N 9 11 1013.2 - 0.0 - - 10 - - - -
26/08:30pm 23.9 N 8 10 1013.5 - 0.0 - - 10 - - - -
26/08:00pm 24.0 N 7 8 1013.3 - 0.0 - - 10 - - - -
26/07:30pm 24.2 N 7 8 1013.2 - 0.0 - - 10 - - - -
26/07:00pm 24.3 N 6 7 1012.8 - 0.0 - Partly cloudy 10 - - - -
26/06:30pm 24.5 N 6 8 1012.4 - 0.0 - Partly cloudy 10 - - - -
26/06:00pm 24.8 N 7 10 1011.7 - 0.0 - Partly cloudy 10 - - - -
26/05:44pm 24.9 NNE 8 11 1011.8 - 0.0 - Partly cloudy 10 - - - -
26/05:30pm 25.2 NNE 8 10 1011.8 - 0.0 - Cloudy 10 - - - -
26/05:00pm 25.9 N 6 14 1011.7 - 0.0 - Partly cloudy 10 - - - -
26/04:30pm 25.8 NW 9 11 1011.7 - 0.0 - Partly cloudy 10 - - - -
26/04:00pm 25.9 WNW 6 8 1011.8 - 0.0 - Partly cloudy 10 - - - -
26/03:56pm 26.0 SSE 5 7 1011.8 - 0.0 - Partly cloudy 10 - - - -
26/03:30pm 24.9 ESE 8 10 1011.8 - 0.0 - Partly cloudy 10 - - - -
26/03:00pm 25.4 ESE 9 10 1011.5 - 0.0 - - 10 - - - -
26/02:30pm 25.3 ESE 10 11 1011.9 - 0.0 - - 10 - - - -
26/02:00pm 25.6 ESE 10 11 1012.2 - 0.0 - Partly cloudy 10 - - - -
26/01:30pm 25.2 ESE 9 11 1012.5 - 0.0 - - 10 - - - -
26/01:00pm 25.0 SE 7 8 1013.2 - 0.0 - - 10 - - - -
26/12:30pm 24.9 SE 7 9 1013.7 - 0.0 - - 10 - - - -
26/12:00pm 25.1 SE 7 9 1013.9 - 0.0 - - 10 - - - -
26/11:30am 25.3 SE 6 8 1014.6 - 0.0 - - 10 - - - -
26/11:00am 25.2 SE 7 8 1015.2 - 0.0 - - 10 - - - -
26/10:30am 24.6 SSE 7 8 1015.6 - 0.0 - - 10 - - - -
26/10:00am 24.7 SE 6 9 1015.8 - 0.0 - - - - - - -
26/09:30am 24.4 SE 6 8 1015.8 - 0.0 - Partly cloudy 10 - - - -
26/09:00am 24.6 SSE 6 7 1015.6 - 0.0 - - 10 - - - -
26/08:30am 23.9 SSE 6 7 1015.5 - 0.0 - Partly cloudy 10 - - - -
26/08:00am 23.5 S 6 8 1015.3 - 0.0 - Partly cloudy 10 - - - -
26/07:30am 23.1 S 5 6 1015.4 - 0.0 - Partly cloudy 10 - - - -
26/07:11am 22.6 S 5 7 1015.2 - 0.0 - Partly cloudy 10 - - - -
26/07:00am 22.4 S 6 8 1015.2 - 0.0 - Partly cloudy 10 - - - -
26/06:30am 22.2 S 8 9 1014.8 - 0.0 - Partly cloudy 10 - - - -
26/06:14am 22.2 S 9 10 1014.6 - 0.0 - Partly cloudy 10 - - - -
26/06:00am 22.1 S 7 9 1014.0 - 0.0 - Mostly clear 10 - - - -
26/05:30am 22.3 S 8 11 1014.0 - 0.0 - Partly cloudy 10 - - - -
26/05:00am 22.2 S 9 11 1013.9 - 0.0 - - 10 - - - -
26/04:30am 22.3 S 10 11 1014.0 - 0.0 - Partly cloudy 10 - - - -
26/04:02am 22.3 S 11 12 1014.1 - 0.0 - Partly cloudy 10 - - - -
26/04:00am 22.3 S 11 12 1014.1 - 0.0 - Partly cloudy 10 - - - -
26/03:37am 22.3 S 9 10 1014.2 - 0.0 - Partly cloudy 10 - - - -
26/03:30am 22.4 S 9 10 1014.2 - 0.0 - Partly cloudy 10 - - - -
26/03:00am 22.6 S 9 11 1013.8 - 0.0 - Partly cloudy 10 - - - -
26/02:38am 22.7 S 9 11 1014.3 - 0.0 - Partly cloudy 10 - - - -
26/02:30am 22.8 S 10 11 1014.3 - 0.0 - Partly cloudy 10 - - - -
26/02:17am 22.9 S 9 10 1014.5 - 0.0 - Partly cloudy 10 - - - -
26/02:09am 23.0 S 9 10 1014.6 - 0.0 - Partly cloudy 10 - - - -
26/02:00am 22.9 S 9 10 1014.7 - 0.0 - Partly cloudy 10 - - - -
26/01:37am 23.1 S 8 10 1015.0 - 0.0 - Partly cloudy 10 - - - -
26/01:34am 23.1 S 8 10 1015.1 - 0.0 - Partly cloudy 10 - - - -
26/01:30am 23.1 S 8 10 1015.1 - 0.0 - Partly cloudy 10 - - - -
26/01:03am 23.2 S 7 8 1015.4 - 0.0 - Partly cloudy 10 - - - -
26/01:00am 23.2 S 7 8 1015.4 - 0.0 - Partly cloudy 10 - - - -
26/12:30am 23.1 SSE 6 8 1015.6 - 0.0 - - 10 - - - -
26/12:00am 23.3 SSE 8 9 1015.6 - 0.0 - - 10 - - - -
 
Date/Time
EST
Temp
°C
Wind Pressure Rain since
9am
mm
Weather Cloud Vis
km
Sea
Height
m
Swell
Dir  Spd
kts
Gust
kts
hPa Trend Height
m
Period
s
Dir
25/11:30pm 23.2 SE 9 10 1015.9 - 0.0 - - 10 - - - -
25/11:00pm 23.2 SE 9 11 1016.0 - 0.0 - - 10 - - - -
25/10:30pm 23.5 SE 11 12 1016.1 - 0.0 - - 10 - - - -
25/10:00pm 23.5 SE 11 13 1016.2 - 0.0 - - 10 - - - -
25/09:30pm 23.5 SE 9 11 1016.4 - 0.0 - Partly cloudy 10 - - - -
25/09:05pm 23.5 SSE 9 10 1016.4 - 0.0 - Partly cloudy 10 - - - -
25/09:00pm 23.5 SE 9 10 1016.2 - 0.0 - Mostly clear 10 - - - -
25/08:30pm 23.4 SE 8 10 1016.3 - 0.0 - Partly cloudy 10 - - - -
25/08:27pm 23.4 SE 8 9 1016.4 - 0.0 - Partly cloudy 10 - - - -
25/08:00pm 23.4 SE 9 10 1016.2 - 0.0 - Partly cloudy 10 - - - -
25/07:30pm 23.3 ESE 9 11 1016.1 - 0.0 - Partly cloudy 10 - - - -
25/07:00pm 23.3 SE 10 12 1015.6 - 0.0 - Partly cloudy 10 - - - -
25/06:30pm 23.3 SE 8 11 1015.3 - 0.0 - - 10 - - - -
25/06:00pm 23.4 SE 11 13 1014.8 - 0.0 - Mostly clear 10 - - - -
25/05:30pm 23.7 SE 11 12 1014.9 - 0.0 - - 10 - - - -
25/05:00pm 24.0 SE 10 11 1014.7 - 0.0 - - 10 - - - -
25/04:30pm 24.3 ESE 11 13 1014.5 - 0.0 - - 10 - - - -
25/04:00pm 24.7 ESE 13 15 1014.3 - 0.0 - Partly cloudy 10 - - - -
25/03:30pm 25.1 ESE 13 15 1014.2 - 0.0 - - 10 - - - -
25/03:00pm 25.4 SE 15 16 1013.9 - 0.0 - Partly cloudy 10 - - - -
25/02:30pm 26.1 SE 13 16 1014.4 - 0.0 - Partly cloudy 10 - - - -
25/02:00pm 26.2 ESE 13 16 1014.7 - 0.0 - Partly cloudy 10 - - - -
25/01:30pm 26.2 ESE 14 16 1014.8 - 0.0 - - 10 - - - -
25/01:00pm 26.4 ESE 14 17 1015.2 - 0.0 - - 10 - - - -
25/12:30pm 26.2 SE 15 17 1015.8 - 0.0 - Partly cloudy 10 - - - -
25/12:00pm 26.2 SE 15 16 1016.1 - 0.0 - Partly cloudy 10 - - - -
25/11:51am 25.9 SE 15 18 1016.4 - 0.0 - Partly cloudy 10 - - - -
25/11:30am 24.5 S 15 19 1016.6 - 0.0 - Partly cloudy 10 - - - -
25/11:19am 24.6 SSE 15 19 1016.8 - 0.0 - Partly cloudy 10 - - - -
25/11:00am 24.6 SSE 12 16 1017.2 - 0.0 - Partly cloudy 10 - - - -

Other Formats:

Comma delimited format used in spreadsheet applications
http://www.bom.gov.au/fwo/IDQ60701/IDQ60701.94368.axf

JavaScript Object Notation format (JSON) in row-major order
http://www.bom.gov.au/fwo/IDQ60701/IDQ60701.94368.json